Time;durP1;ratioP1;P1;durP2;ratioP2;P2;SDS_P1;SDS_P2;PMS_P1;PMS_P2;Temp;Humidity;BMP_temperature;BMP_pressure;BME280_temperature;BME280_humidity;BME280_pressure;Samples;Min_cycle;Max_cycle;Signal;HPM_P1;HPM_P2
2023/12/17 00:00:52;;;;;;;54.70;27.00;;;2.20;99.90;;;;;;5033537;28;20026;-79
2023/12/17 00:03:18;;;;;;;52.25;22.35;;;2.20;99.90;;;;;;5026916;28;20053;-80
2023/12/17 00:05:43;;;;;;;69.43;27.73;;;2.20;99.90;;;;;;5026245;28;20568;-79
2023/12/17 00:08:09;;;;;;;63.28;26.40;;;2.30;99.90;;;;;;5028711;28;20022;-79
2023/12/17 00:10:35;;;;;;;60.25;26.58;;;2.30;99.90;;;;;;5026025;28;20023;-80
2023/12/17 00:13:00;;;;;;;64.25;25.52;;;2.30;99.90;;;;;;5033196;28;20021;-80
2023/12/17 00:15:26;;;;;;;54.63;23.25;;;2.30;99.90;;;;;;5030072;28;20026;-79
2023/12/17 00:17:52;;;;;;;58.40;22.95;;;2.30;99.90;;;;;;5032949;28;20477;-80
2023/12/17 00:20:17;;;;;;;58.97;24.50;;;2.30;99.90;;;;;;5028614;28;20480;-80
2023/12/17 00:22:43;;;;;;;44.03;20.13;;;2.30;99.90;;;;;;5029470;28;20463;-81
2023/12/17 00:25:09;;;;;;;48.08;21.65;;;2.30;99.90;;;;;;5031104;28;20371;-81
2023/12/17 00:27:34;;;;;;;55.92;23.15;;;2.30;99.90;;;;;;5032654;28;20020;-81
2023/12/17 00:30:00;;;;;;;68.13;26.15;;;2.40;99.90;;;;;;5032900;28;20029;-79
2023/12/17 00:32:26;;;;;;;51.97;21.98;;;2.30;99.90;;;;;;5032507;28;20450;-79
2023/12/17 00:34:51;;;;;;;43.65;22.13;;;2.40;99.90;;;;;;5028433;28;20357;-80
2023/12/17 00:37:17;;;;;;;42.03;20.50;;;2.40;99.90;;;;;;5018904;28;20033;-79
2023/12/17 00:39:43;;;;;;;48.85;21.08;;;2.40;99.90;;;;;;5028677;28;20116;-80
2023/12/17 00:42:08;;;;;;;49.38;21.33;;;2.40;99.90;;;;;;5028340;28;20025;-78
2023/12/17 00:44:34;;;;;;;39.35;18.45;;;2.40;99.90;;;;;;5029818;28;20021;-80
2023/12/17 00:47:00;;;;;;;41.00;19.67;;;2.40;99.90;;;;;;5027836;28;20024;-79
2023/12/17 00:49:25;;;;;;;35.00;18.77;;;2.40;99.90;;;;;;5028371;28;20025;-81
2023/12/17 00:51:51;;;;;;;29.63;17.08;;;2.40;99.90;;;;;;5032310;28;20083;-78
2023/12/17 00:54:17;;;;;;;34.58;17.73;;;2.40;99.90;;;;;;5027957;28;20097;-78
2023/12/17 00:56:42;;;;;;;36.45;18.80;;;2.40;99.90;;;;;;5029978;28;20037;-78
2023/12/17 00:59:08;;;;;;;31.17;16.25;;;2.40;99.90;;;;;;5029052;28;20036;-79
2023/12/17 01:01:33;;;;;;;36.50;16.67;;;2.50;99.90;;;;;;5024037;28;20029;-81
2023/12/17 01:03:59;;;;;;;35.05;15.60;;;2.50;99.90;;;;;;5028698;28;20009;-78
2023/12/17 01:06:25;;;;;;;34.10;15.68;;;2.40;99.90;;;;;;5024316;28;20395;-78
2023/12/17 01:08:50;;;;;;;35.90;16.88;;;2.40;99.90;;;;;;5031063;28;20374;-81
2023/12/17 01:11:16;;;;;;;31.05;18.02;;;2.50;99.90;;;;;;5028567;28;20446;-80
2023/12/17 01:13:42;;;;;;;27.75;15.25;;;2.50;99.90;;;;;;5026963;28;20088;-78
2023/12/17 01:16:07;;;;;;;40.67;17.50;;;2.50;99.90;;;;;;5032196;28;20104;-78
2023/12/17 01:18:33;;;;;;;29.38;15.60;;;2.50;99.90;;;;;;5029648;28;20018;-78
2023/12/17 01:21:00;;;;;;;35.00;16.75;;;2.50;99.90;;;;;;5031983;28;20029;-78
2023/12/17 01:23:26;;;;;;;26.88;14.70;;;2.50;99.90;;;;;;5025007;28;20029;-78
2023/12/17 01:25:51;;;;;;;24.48;13.45;;;2.50;99.90;;;;;;5029041;28;20033;-78
2023/12/17 01:28:17;;;;;;;28.58;14.73;;;2.50;99.90;;;;;;5031656;28;20041;-78
2023/12/17 01:30:43;;;;;;;27.23;14.25;;;2.60;99.90;;;;;;5017949;28;20022;-78
2023/12/17 01:33:09;;;;;;;28.27;13.68;;;2.60;99.90;;;;;;5027539;28;20046;-78
2023/12/17 01:35:34;;;;;;;26.23;15.15;;;2.60;99.90;;;;;;5027854;28;20014;-79
2023/12/17 01:38:00;;;;;;;27.48;14.07;;;2.60;99.90;;;;;;5029359;28;20088;-79
2023/12/17 01:40:25;;;;;;;39.97;15.85;;;2.60;99.90;;;;;;5031566;28;20021;-78
2023/12/17 01:42:52;;;;;;;30.90;14.65;;;2.60;99.90;;;;;;5031615;28;20421;-78
2023/12/17 01:45:18;;;;;;;28.05;14.18;;;2.60;99.90;;;;;;5032798;28;20482;-78
2023/12/17 01:47:44;;;;;;;30.60;15.10;;;2.70;99.90;;;;;;5035640;28;20029;-79
2023/12/17 01:50:10;;;;;;;26.20;15.07;;;2.70;99.90;;;;;;5032989;28;20026;-79
2023/12/17 01:52:36;;;;;;;28.50;14.70;;;2.70;99.90;;;;;;5031314;28;20037;-78
2023/12/17 01:55:03;;;;;;;25.05;14.35;;;2.70;99.90;;;;;;5031178;28;20598;-78
2023/12/17 01:57:29;;;;;;;23.08;14.05;;;2.70;99.90;;;;;;5034455;28;20128;-79
2023/12/17 01:59:56;;;;;;;27.23;14.88;;;2.80;99.90;;;;;;5034211;28;20017;-79
2023/12/17 02:02:21;;;;;;;28.52;14.63;;;2.80;99.90;;;;;;5030832;28;20048;-79
2023/12/17 02:04:47;;;;;;;28.92;15.48;;;2.80;99.90;;;;;;5032527;28;20029;-79
2023/12/17 02:07:12;;;;;;;27.25;14.60;;;2.80;99.90;;;;;;5051027;28;20101;-78
2023/12/17 02:09:38;;;;;;;28.48;13.85;;;2.80;99.90;;;;;;5035463;28;20379;-78
2023/12/17 02:12:04;;;;;;;28.17;14.57;;;2.80;99.90;;;;;;5035460;28;20013;-79
2023/12/17 02:14:30;;;;;;;24.80;13.65;;;2.80;99.90;;;;;;5032043;28;20026;-79
2023/12/17 02:16:55;;;;;;;23.98;12.80;;;2.80;99.90;;;;;;5030911;28;20037;-78
2023/12/17 02:19:21;;;;;;;26.10;13.82;;;2.80;99.90;;;;;;5031608;28;20104;-78
2023/12/17 02:21:47;;;;;;;35.08;15.77;;;2.80;99.90;;;;;;5030767;28;20449;-81
2023/12/17 02:24:12;;;;;;;29.10;15.07;;;2.90;99.90;;;;;;5031663;28;20479;-81
2023/12/17 02:26:42;;;;;;;30.92;14.27;;;2.80;99.90;;;;;;5033988;28;20422;-79
2023/12/17 02:29:08;;;;;;;29.75;14.25;;;2.80;99.90;;;;;;5033822;28;20117;-78
2023/12/17 02:31:34;;;;;;;24.98;13.23;;;2.80;99.90;;;;;;5030592;28;20109;-78
2023/12/17 02:33:59;;;;;;;25.02;13.60;;;2.90;99.90;;;;;;5032290;28;20076;-79
2023/12/17 02:36:25;;;;;;;25.95;13.50;;;2.90;99.90;;;;;;5030396;28;20033;-79
2023/12/17 02:38:50;;;;;;;24.50;13.82;;;2.90;99.90;;;;;;5030738;28;20021;-80
2023/12/17 02:41:16;;;;;;;24.33;12.90;;;2.80;99.90;;;;;;5030440;28;20018;-81
2023/12/17 02:43:42;;;;;;;21.38;13.00;;;2.90;99.90;;;;;;5025406;28;20105;-79
2023/12/17 02:46:07;;;;;;;25.80;13.40;;;2.90;99.90;;;;;;5031356;28;20533;-81
2023/12/17 02:48:33;;;;;;;27.25;13.73;;;2.90;99.90;;;;;;5031120;28;20029;-79
2023/12/17 02:50:59;;;;;;;27.00;13.70;;;2.90;99.90;;;;;;5032903;28;20057;-81
2023/12/17 02:53:24;;;;;;;25.92;12.90;;;2.90;99.90;;;;;;5031545;28;20052;-80
2023/12/17 02:55:50;;;;;;;22.40;12.35;;;2.90;99.90;;;;;;5046123;28;20033;-79
2023/12/17 02:58:15;;;;;;;27.88;13.10;;;2.90;99.90;;;;;;5034571;28;20491;-81
2023/12/17 03:00:41;;;;;;;26.45;13.55;;;2.90;99.90;;;;;;5030162;28;20492;-80
2023/12/17 03:03:07;;;;;;;25.20;13.25;;;2.90;99.90;;;;;;5033541;28;20030;-79
2023/12/17 03:05:32;;;;;;;22.65;13.02;;;3.00;99.90;;;;;;5037515;28;20045;-79
2023/12/17 03:07:58;;;;;;;23.67;13.15;;;2.90;99.90;;;;;;5028755;28;20029;-79
2023/12/17 03:10:24;;;;;;;25.23;12.38;;;3.00;99.90;;;;;;5025863;28;20029;-79
2023/12/17 03:12:49;;;;;;;28.90;13.52;;;3.00;99.90;;;;;;5028166;28;20045;-79
2023/12/17 03:15:15;;;;;;;29.77;12.38;;;3.00;99.90;;;;;;5017514;28;20022;-79
2023/12/17 03:17:40;;;;;;;21.33;12.35;;;2.90;99.90;;;;;;5033191;28;20037;-78
2023/12/17 03:20:07;;;;;;;26.70;13.52;;;2.90;99.90;;;;;;5033050;28;20076;-79
2023/12/17 03:22:32;;;;;;;28.85;13.07;;;2.90;99.90;;;;;;5021953;28;20029;-79
2023/12/17 03:24:58;;;;;;;25.20;12.88;;;2.90;99.90;;;;;;5047880;28;20018;-78
2023/12/17 03:27:24;;;;;;;30.83;13.30;;;2.90;99.90;;;;;;5034031;28;20029;-79
2023/12/17 03:29:50;;;;;;;26.95;13.98;;;2.90;99.90;;;;;;5049378;28;20124;-79
2023/12/17 03:32:15;;;;;;;21.52;11.32;;;2.90;99.90;;;;;;5034115;28;20041;-79
2023/12/17 03:34:41;;;;;;;25.85;13.38;;;2.90;99.90;;;;;;5029051;28;20030;-79
2023/12/17 03:37:07;;;;;;;23.08;12.55;;;2.90;99.90;;;;;;5037639;28;20029;-79
2023/12/17 03:39:32;;;;;;;25.95;13.18;;;2.90;99.90;;;;;;5033918;28;20079;-79
2023/12/17 03:41:58;;;;;;;22.98;13.00;;;2.80;99.90;;;;;;5029397;28;20014;-80
2023/12/17 03:44:24;;;;;;;22.85;12.45;;;2.80;99.90;;;;;;5032232;28;20028;-78
2023/12/17 03:46:49;;;;;;;36.60;16.90;;;2.70;99.90;;;;;;5029070;28;20029;-78
2023/12/17 03:49:15;;;;;;;27.58;13.25;;;2.70;99.90;;;;;;5047263;28;20060;-78
2023/12/17 03:51:40;;;;;;;28.50;12.20;;;2.60;99.90;;;;;;5031936;28;20025;-78
2023/12/17 03:54:06;;;;;;;27.35;14.13;;;2.60;99.90;;;;;;5019985;28;20033;-81
2023/12/17 03:56:32;;;;;;;24.20;13.55;;;2.50;99.90;;;;;;5033501;28;20034;-82
2023/12/17 03:58:57;;;;;;;29.58;14.00;;;2.50;99.90;;;;;;5048865;28;20026;-81
2023/12/17 04:01:23;;;;;;;29.25;13.63;;;2.40;99.90;;;;;;5032524;28;20029;-79
2023/12/17 04:03:48;;;;;;;23.98;14.40;;;2.40;99.90;;;;;;5033690;28;20025;-79
2023/12/17 04:06:14;;;;;;;25.95;15.10;;;2.30;99.90;;;;;;5033699;28;20034;-80
2023/12/17 04:08:40;;;;;;;24.60;13.45;;;2.30;99.90;;;;;;5048446;28;20018;-79
2023/12/17 04:11:05;;;;;;;30.55;14.85;;;2.20;99.90;;;;;;5033348;28;20053;-78
2023/12/17 04:13:31;;;;;;;27.52;14.18;;;2.20;99.90;;;;;;5028537;28;20435;-78
2023/12/17 04:15:57;;;;;;;29.42;14.60;;;2.20;99.90;;;;;;5028806;28;20032;-81
2023/12/17 04:18:22;;;;;;;23.40;13.45;;;2.10;99.90;;;;;;5028157;28;20033;-78
2023/12/17 04:20:48;;;;;;;25.42;13.75;;;2.10;99.90;;;;;;5024082;28;20087;-82
2023/12/17 04:23:14;;;;;;;30.85;13.50;;;2.10;99.90;;;;;;5033036;28;20024;-78
2023/12/17 04:25:40;;;;;;;27.25;14.65;;;2.10;99.90;;;;;;5033113;28;20088;-81
2023/12/17 04:28:05;;;;;;;26.05;14.30;;;2.00;99.90;;;;;;5028257;28;20014;-82
2023/12/17 04:30:31;;;;;;;36.08;15.18;;;2.00;99.90;;;;;;5024470;28;20056;-78
2023/12/17 04:32:56;;;;;;;29.25;13.35;;;1.90;99.90;;;;;;5032396;28;20054;-79
2023/12/17 04:35:22;;;;;;;28.50;13.43;;;1.90;99.90;;;;;;5032991;28;20029;-78
2023/12/17 04:37:48;;;;;;;34.03;15.18;;;1.90;99.90;;;;;;5047881;28;20064;-82
2023/12/17 04:40:14;;;;;;;32.42;16.23;;;1.90;99.90;;;;;;5028280;28;20026;-83
2023/12/17 04:42:40;;;;;;;31.38;14.88;;;1.80;99.90;;;;;;5025723;28;20018;-82
2023/12/17 04:45:06;;;;;;;35.20;15.52;;;1.80;99.90;;;;;;5023220;28;20053;-82
2023/12/17 04:47:32;;;;;;;34.83;15.15;;;1.80;99.90;;;;;;5032584;28;20021;-79
2023/12/17 04:49:57;;;;;;;31.85;15.77;;;1.80;99.90;;;;;;5032511;28;20498;-79
2023/12/17 04:52:23;;;;;;;27.50;14.32;;;1.70;99.90;;;;;;5047603;28;20518;-81
2023/12/17 04:54:49;;;;;;;25.95;13.57;;;1.70;99.90;;;;;;5028267;28;20025;-81
2023/12/17 04:57:14;;;;;;;32.65;15.20;;;1.70;99.90;;;;;;5031444;28;20056;-79
2023/12/17 04:59:41;;;;;;;30.95;14.27;;;1.70;99.90;;;;;;5032459;28;20026;-78
2023/12/17 05:02:06;;;;;;;30.02;14.80;;;1.70;99.90;;;;;;5032213;28;20028;-78
2023/12/17 05:04:32;;;;;;;25.95;14.27;;;1.60;99.90;;;;;;5032482;28;20017;-82
2023/12/17 05:06:58;;;;;;;25.38;13.75;;;1.70;99.90;;;;;;5032263;28;20026;-78
2023/12/17 05:09:23;;;;;;;29.33;15.30;;;1.70;99.90;;;;;;5032304;28;20025;-82
2023/12/17 05:11:49;;;;;;;30.23;14.48;;;1.60;99.90;;;;;;5047360;28;20018;-82
2023/12/17 05:14:15;;;;;;;27.02;13.48;;;1.50;99.90;;;;;;5032404;28;20022;-82
2023/12/17 05:16:41;;;;;;;26.35;13.85;;;1.50;99.90;;;;;;5031865;28;20057;-79
2023/12/17 05:19:09;;;;;;;26.40;14.65;;;1.50;99.90;;;;;;5028120;28;20061;-84
2023/12/17 05:21:35;;;;;;;34.42;15.13;;;1.50;99.90;;;;;;5027542;28;20021;-82
2023/12/17 05:24:02;;;;;;;31.75;15.68;;;1.50;99.90;;;;;;5032652;28;20536;-82
2023/12/17 05:26:28;;;;;;;31.40;14.35;;;1.40;99.90;;;;;;5030843;28;20022;-79
2023/12/17 05:28:54;;;;;;;28.88;14.70;;;1.50;99.90;;;;;;5030023;28;20490;-81
2023/12/17 05:31:19;;;;;;;24.60;13.32;;;1.40;99.90;;;;;;5047378;28;20348;-80
2023/12/17 05:33:46;;;;;;;30.83;14.43;;;1.40;99.90;;;;;;5032480;28;20051;-81
2023/12/17 05:36:12;;;;;;;25.15;13.20;;;1.40;99.90;;;;;;5032306;28;20119;-79
2023/12/17 05:38:38;;;;;;;32.35;14.35;;;1.40;99.90;;;;;;5027811;28;20022;-78
2023/12/17 05:41:04;;;;;;;32.08;14.85;;;1.40;99.90;;;;;;5026978;28;20548;-85
2023/12/17 05:43:30;;;;;;;25.23;14.20;;;1.30;99.90;;;;;;5019667;28;20522;-85
2023/12/17 05:45:56;;;;;;;26.23;13.80;;;1.30;99.90;;;;;;5016826;28;20026;-78
2023/12/17 05:48:21;;;;;;;28.88;13.68;;;1.30;99.90;;;;;;5032142;28;20022;-83
2023/12/17 05:50:47;;;;;;;32.92;16.45;;;1.30;99.90;;;;;;5047276;28;20498;-84
2023/12/17 05:53:13;;;;;;;37.83;15.88;;;1.30;99.90;;;;;;5024106;28;20026;-78
2023/12/17 05:55:39;;;;;;;26.88;14.60;;;1.30;99.90;;;;;;5028988;28;20024;-85
2023/12/17 05:58:04;;;;;;;28.95;15.95;;;1.30;99.90;;;;;;5047592;28;20419;-81
2023/12/17 06:00:30;;;;;;;36.50;16.38;;;1.30;99.90;;;;;;5029385;28;20022;-81
2023/12/17 06:02:55;;;;;;;34.28;15.98;;;1.20;99.90;;;;;;5028010;28;20109;-81
2023/12/17 06:05:21;;;;;;;30.33;15.15;;;1.20;99.90;;;;;;5027636;28;20013;-81
2023/12/17 06:07:47;;;;;;;36.92;17.40;;;1.20;99.90;;;;;;5047694;28;20025;-81
2023/12/17 06:10:13;;;;;;;29.38;16.60;;;1.20;99.90;;;;;;5029576;28;20041;-82
2023/12/17 06:12:38;;;;;;;38.40;15.50;;;1.20;99.90;;;;;;5021186;28;20026;-82
2023/12/17 06:15:05;;;;;;;29.55;15.18;;;1.20;99.90;;;;;;5027836;28;20021;-82
2023/12/17 06:17:31;;;;;;;32.30;15.45;;;1.20;99.90;;;;;;5027257;28;20044;-79
2023/12/17 06:19:56;;;;;;;38.85;15.18;;;1.20;99.90;;;;;;5047156;28;20405;-80
2023/12/17 06:22:24;;;;;;;27.30;16.98;;;1.20;99.90;;;;;;5027509;28;20038;-80
2023/12/17 06:24:50;;;;;;;36.13;15.65;;;1.20;99.90;;;;;;5032933;28;20026;-83
2023/12/17 06:27:17;;;;;;;31.52;15.23;;;1.20;99.90;;;;;;5031248;28;20141;-82
2023/12/17 06:29:43;;;;;;;26.52;14.85;;;1.30;99.90;;;;;;5033693;28;20546;-83
2023/12/17 06:32:09;;;;;;;29.15;15.00;;;1.30;99.90;;;;;;5030805;28;20120;-82
2023/12/17 06:34:35;;;;;;;28.23;14.23;;;1.30;99.90;;;;;;5025762;28;20021;-83
2023/12/17 06:37:01;;;;;;;31.73;15.00;;;1.30;99.90;;;;;;5035668;28;20120;-79
2023/12/17 06:39:27;;;;;;;29.33;15.73;;;1.30;99.90;;;;;;5021353;28;20024;-84
2023/12/17 06:41:52;;;;;;;32.45;15.02;;;1.40;99.90;;;;;;5050887;28;20025;-82
2023/12/17 06:44:18;;;;;;;33.53;15.02;;;1.40;99.90;;;;;;5035386;28;20131;-82
2023/12/17 06:46:44;;;;;;;32.40;15.77;;;1.40;99.90;;;;;;5035154;28;20502;-79
2023/12/17 06:49:10;;;;;;;32.20;14.68;;;1.40;99.90;;;;;;5035144;28;20040;-81
2023/12/17 06:51:39;;;;;;;30.00;15.68;;;1.50;99.90;;;;;;5028557;28;20033;-80
2023/12/17 06:54:06;;;;;;;36.28;16.27;;;1.50;99.90;;;;;;5020872;28;20075;-78
2023/12/17 06:56:31;;;;;;;31.65;15.55;;;1.50;99.90;;;;;;5026744;28;20028;-81
2023/12/17 06:58:57;;;;;;;29.35;16.23;;;1.60;99.90;;;;;;5032529;28;20018;-79
2023/12/17 07:01:23;;;;;;;25.75;14.75;;;1.60;99.90;;;;;;5035299;28;20359;-79
2023/12/17 07:03:49;;;;;;;25.98;14.43;;;1.60;99.90;;;;;;5044067;28;20025;-78
2023/12/17 07:06:15;;;;;;;28.33;15.38;;;1.60;99.90;;;;;;5050474;28;20379;-82
2023/12/17 07:08:44;;;;;;;30.33;14.02;;;1.60;99.90;;;;;;5034378;28;20029;-81
2023/12/17 07:11:13;;;;;;;35.72;15.35;;;1.60;99.90;;;;;;5040980;28;20428;-81
2023/12/17 07:13:38;;;;;;;32.55;16.73;;;1.70;99.90;;;;;;5027053;28;20022;-81
2023/12/17 07:16:04;;;;;;;41.85;16.40;;;1.60;99.90;;;;;;5028146;28;20031;-80
2023/12/17 07:18:30;;;;;;;30.23;17.30;;;1.70;99.90;;;;;;5026040;28;20172;-82
2023/12/17 07:20:56;;;;;;;31.42;16.33;;;1.70;99.90;;;;;;5030725;28;20033;-81
2023/12/17 07:23:24;;;;;;;34.42;16.27;;;1.80;99.90;;;;;;5031811;28;20029;-79
2023/12/17 07:25:50;;;;;;;32.10;15.27;;;1.80;99.90;;;;;;5030059;28;20056;-79
2023/12/17 07:28:15;;;;;;;39.85;17.02;;;1.80;99.90;;;;;;5029808;28;20447;-79
2023/12/17 07:30:41;;;;;;;34.63;16.80;;;1.90;99.90;;;;;;5032914;28;20383;-77
2023/12/17 07:33:08;;;;;;;34.75;16.10;;;1.90;99.90;;;;;;5031740;28;20380;-78
2023/12/17 07:35:34;;;;;;;33.53;17.05;;;1.90;99.90;;;;;;5028238;28;20021;-78
2023/12/17 07:37:59;;;;;;;34.97;17.45;;;1.90;99.90;;;;;;5030531;28;20037;-79
2023/12/17 07:40:25;;;;;;;35.45;17.15;;;2.00;99.90;;;;;;5027333;28;20064;-78
2023/12/17 07:42:52;;;;;;;35.35;16.95;;;2.00;99.90;;;;;;5029668;28;20368;-81
2023/12/17 07:45:17;;;;;;;35.17;16.42;;;2.10;99.90;;;;;;5034269;28;20027;-78
2023/12/17 07:47:44;;;;;;;36.35;18.63;;;2.10;99.90;;;;;;5033008;28;20040;-80
2023/12/17 07:50:10;;;;;;;36.40;17.60;;;2.10;99.90;;;;;;5031446;28;20048;-78
2023/12/17 07:52:36;;;;;;;41.50;18.13;;;2.20;99.90;;;;;;5032397;28;20454;-78
2023/12/17 07:55:01;;;;;;;36.42;14.88;;;2.20;99.90;;;;;;5023734;28;20022;-78
2023/12/17 07:57:28;;;;;;;39.05;17.33;;;2.20;99.90;;;;;;5033499;28;20104;-80
2023/12/17 07:59:54;;;;;;;41.17;15.73;;;2.20;99.90;;;;;;5023264;28;20022;-82
2023/12/17 08:02:19;;;;;;;33.13;16.92;;;2.20;99.90;;;;;;5024606;28;20024;-78
2023/12/17 08:04:46;;;;;;;35.33;17.70;;;2.30;99.90;;;;;;5032223;28;20116;-78
2023/12/17 08:07:12;;;;;;;34.17;16.25;;;2.30;99.90;;;;;;5023334;28;20025;-79
2023/12/17 08:09:37;;;;;;;34.22;17.10;;;2.30;99.90;;;;;;5029248;28;20025;-78
2023/12/17 08:12:04;;;;;;;38.97;17.67;;;2.40;99.90;;;;;;5028348;28;20021;-78
2023/12/17 08:14:29;;;;;;;38.28;17.58;;;2.40;99.90;;;;;;5019152;28;20068;-78
2023/12/17 08:16:55;;;;;;;41.22;20.00;;;2.40;99.90;;;;;;5026472;28;20038;-77
2023/12/17 08:19:21;;;;;;;37.97;18.33;;;2.50;99.90;;;;;;5026516;28;20052;-78
2023/12/17 08:21:46;;;;;;;46.67;20.55;;;2.50;99.90;;;;;;5025699;28;20476;-78
2023/12/17 08:24:12;;;;;;;39.13;18.80;;;2.50;99.90;;;;;;5045216;28;20540;-79
2023/12/17 08:26:38;;;;;;;35.35;19.33;;;2.60;99.90;;;;;;5031919;28;20044;-79
2023/12/17 08:29:04;;;;;;;68.45;27.40;;;2.60;99.90;;;;;;5029848;28;20061;-78
2023/12/17 08:31:30;;;;;;;33.30;17.33;;;2.60;99.90;;;;;;5022550;28;20057;-78
2023/12/17 08:33:55;;;;;;;35.40;17.40;;;2.70;99.90;;;;;;5027559;28;20049;-79
2023/12/17 08:36:24;;;;;;;46.85;23.13;;;2.70;99.90;;;;;;5022765;28;20036;-79
2023/12/17 08:38:49;;;;;;;33.85;18.45;;;2.80;99.90;;;;;;5025913;28;20026;-79
2023/12/17 08:41:15;;;;;;;32.47;18.15;;;2.80;99.90;;;;;;5022092;28;20026;-77
2023/12/17 08:43:40;;;;;;;40.83;17.90;;;2.80;99.90;;;;;;5032728;28;20415;-77
2023/12/17 08:46:06;;;;;;;41.63;19.80;;;2.90;99.90;;;;;;5025005;28;20046;-78
2023/12/17 08:48:32;;;;;;;39.30;18.80;;;2.90;99.90;;;;;;5028898;28;20544;-79
2023/12/17 08:50:58;;;;;;;39.92;19.52;;;3.00;99.90;;;;;;5022219;28;20083;-77
2023/12/17 08:53:26;;;;;;;45.70;20.80;;;3.00;99.90;;;;;;5036528;28;20021;-79
2023/12/17 08:55:52;;;;;;;39.95;20.73;;;3.00;99.90;;;;;;5016264;28;20144;-82
2023/12/17 08:58:18;;;;;;;81.40;42.67;;;3.10;99.90;;;;;;5022761;28;20046;-80
2023/12/17 09:00:44;;;;;;;99.30;47.97;;;3.20;99.90;;;;;;5026387;28;20055;-79
2023/12/17 09:03:09;;;;;;;101.38;45.55;;;3.20;99.90;;;;;;5019482;28;20034;-79
2023/12/17 09:05:35;;;;;;;110.95;47.85;;;3.30;99.90;;;;;;5025452;28;20034;-82
2023/12/17 09:08:01;;;;;;;108.88;50.13;;;3.30;99.90;;;;;;5024882;28;20125;-81
2023/12/17 09:10:27;;;;;;;109.15;47.70;;;3.40;99.90;;;;;;5021775;28;20026;-79
2023/12/17 09:12:54;;;;;;;215.25;74.25;;;3.40;99.90;;;;;;5024061;28;20548;-82
2023/12/17 09:15:20;;;;;;;159.68;56.83;;;3.50;99.90;;;;;;5032156;28;20045;-81
2023/12/17 09:17:46;;;;;;;129.30;47.30;;;3.50;99.90;;;;;;5031697;28;20044;-79
2023/12/17 09:20:13;;;;;;;207.45;69.22;;;3.60;99.90;;;;;;5030957;28;20018;-81
2023/12/17 09:22:40;;;;;;;136.85;47.88;;;3.70;99.90;;;;;;5030483;28;20033;-79
2023/12/17 09:25:06;;;;;;;241.77;75.35;;;3.70;99.90;;;;;;5019345;28;20551;-77
2023/12/17 09:27:32;;;;;;;239.88;71.45;;;3.80;99.90;;;;;;5027931;28;20029;-82
2023/12/17 09:29:58;;;;;;;323.33;104.05;;;3.80;99.90;;;;;;5028719;28;20033;-80
2023/12/17 09:32:23;;;;;;;393.25;117.00;;;3.90;99.90;;;;;;5030392;28;20060;-80
2023/12/17 09:34:49;;;;;;;347.48;108.13;;;4.00;99.90;;;;;;5026802;28;20420;-81
2023/12/17 09:37:15;;;;;;;346.67;107.22;;;4.10;99.90;;;;;;5032054;28;20047;-82
2023/12/17 09:39:40;;;;;;;392.75;126.90;;;4.10;99.90;;;;;;5027022;28;20022;-78
2023/12/17 09:42:06;;;;;;;314.05;105.43;;;4.10;99.90;;;;;;5029550;28;20110;-80
2023/12/17 09:44:32;;;;;;;234.48;77.85;;;4.20;99.90;;;;;;5023354;28;20022;-82
2023/12/17 09:46:58;;;;;;;374.88;121.75;;;4.20;99.90;;;;;;5032165;28;20392;-79
2023/12/17 09:49:24;;;;;;;244.23;89.03;;;4.30;99.90;;;;;;5046056;28;20116;-77
2023/12/17 09:52:00;;;;;;;142.18;54.78;;;4.30;99.90;;;;;;5030307;28;20467;-77
2023/12/17 09:54:25;;;;;;;233.98;89.13;;;4.30;99.90;;;;;;5019119;28;20087;-78
2023/12/17 09:56:55;;;;;;;213.00;81.53;;;4.40;99.90;;;;;;5030969;28;20429;-78
2023/12/17 09:59:22;;;;;;;193.70;77.65;;;4.40;99.90;;;;;;5029016;28;20120;-77
2023/12/17 10:01:48;;;;;;;141.65;54.10;;;4.50;99.90;;;;;;5035334;28;20077;-77
2023/12/17 10:04:14;;;;;;;91.97;39.75;;;4.40;99.90;;;;;;5034952;28;20494;-77
2023/12/17 10:06:40;;;;;;;114.60;43.58;;;4.40;99.90;;;;;;5034357;28;20446;-78
2023/12/17 10:09:06;;;;;;;140.15;60.38;;;4.50;99.90;;;;;;5033351;28;20112;-78
2023/12/17 10:11:32;;;;;;;155.48;63.92;;;4.50;99.90;;;;;;5020458;28;20547;-78
2023/12/17 10:14:00;;;;;;;143.45;58.47;;;4.50;99.90;;;;;;5026567;28;20038;-77
2023/12/17 10:16:26;;;;;;;99.95;43.22;;;4.50;99.90;;;;;;5031351;28;20498;-78
2023/12/17 10:18:52;;;;;;;104.90;46.53;;;4.50;99.90;;;;;;5035555;28;20024;-77
2023/12/17 10:21:18;;;;;;;77.88;38.47;;;4.50;99.90;;;;;;5050907;28;20017;-77
2023/12/17 10:23:50;;;;;;;140.30;62.50;;;4.50;99.90;;;;;;5035048;28;20014;-77
2023/12/17 10:26:16;;;;;;;97.85;49.85;;;4.60;99.90;;;;;;5030949;28;20022;-77
2023/12/17 10:28:46;;;;;;;113.00;54.25;;;4.60;99.90;;;;;;5033854;28;20021;-78
2023/12/17 10:31:15;;;;;;;44.92;24.55;;;4.60;99.90;;;;;;5035314;28;20025;-78
2023/12/17 10:33:50;;;;;;;79.55;39.83;;;4.60;99.90;;;;;;5029952;28;20084;-78
2023/12/17 10:36:16;;;;;;;52.28;29.65;;;4.60;99.90;;;;;;5030300;28;20096;-78
2023/12/17 10:38:43;;;;;;;70.43;36.92;;;4.60;99.90;;;;;;5035213;28;20048;-78
2023/12/17 10:41:09;;;;;;;89.78;50.80;;;4.60;99.90;;;;;;5029447;28;20030;-79
2023/12/17 10:43:37;;;;;;;102.05;50.78;;;4.60;99.90;;;;;;5029534;28;20072;-78
2023/12/17 10:46:02;;;;;;;50.25;25.58;;;4.60;99.90;;;;;;5034684;28;20025;-79
2023/12/17 10:48:29;;;;;;;45.85;22.90;;;4.70;99.90;;;;;;5034773;28;20037;-79
2023/12/17 10:50:57;;;;;;;52.65;25.27;;;4.70;99.90;;;;;;5019430;28;20168;-78
2023/12/17 10:53:23;;;;;;;58.38;26.92;;;4.70;99.90;;;;;;5035146;28;20030;-79
2023/12/17 10:55:48;;;;;;;57.88;27.85;;;4.70;99.90;;;;;;5032526;28;20052;-79
2023/12/17 10:58:19;;;;;;;59.47;32.28;;;4.70;99.90;;;;;;5033744;28;20033;-78
2023/12/17 11:00:45;;;;;;;48.83;22.65;;;4.70;99.90;;;;;;5034534;28;20022;-77
2023/12/17 11:03:13;;;;;;;43.20;23.63;;;4.70;99.90;;;;;;5030633;28;20029;-77
2023/12/17 11:05:56;;;;;;;43.20;24.92;;;4.70;99.90;;;;;;5033730;28;20014;-78
2023/12/17 11:08:24;;;;;;;48.05;23.13;;;4.70;99.90;;;;;;5029262;28;20422;-77
2023/12/17 11:10:49;;;;;;;77.35;32.00;;;4.70;99.90;;;;;;5033506;28;20483;-78
2023/12/17 11:13:15;;;;;;;43.63;21.58;;;4.70;99.90;;;;;;5030004;28;20028;-78
2023/12/17 11:15:41;;;;;;;27.73;16.00;;;4.80;99.90;;;;;;5032375;28;20060;-78
2023/12/17 11:18:08;;;;;;;39.40;17.90;;;4.70;99.90;;;;;;5031528;28;20426;-78
2023/12/17 11:20:40;;;;;;;48.22;21.55;;;4.70;99.90;;;;;;5049011;28;20037;-77
2023/12/17 11:23:06;;;;;;;37.28;18.67;;;4.80;99.90;;;;;;5030519;28;20037;-77
2023/12/17 11:25:34;;;;;;;49.75;24.10;;;4.80;99.90;;;;;;5019089;28;20064;-77
2023/12/17 11:28:00;;;;;;;35.58;18.92;;;4.80;99.90;;;;;;5029993;28;20439;-77
2023/12/17 11:30:32;;;;;;;31.67;17.42;;;4.80;99.90;;;;;;5031046;28;20034;-77
2023/12/17 11:32:59;;;;;;;31.10;17.60;;;4.80;99.90;;;;;;5031913;28;20103;-77
2023/12/17 11:35:27;;;;;;;31.73;16.05;;;4.80;99.90;;;;;;5030862;28;20135;-77
2023/12/17 11:37:53;;;;;;;27.42;16.67;;;4.80;99.90;;;;;;5029937;28;20045;-77
2023/12/17 11:40:20;;;;;;;29.77;15.38;;;4.80;99.90;;;;;;5029344;28;20025;-77
2023/12/17 11:42:59;;;;;;;25.08;14.07;;;4.80;99.90;;;;;;5028744;28;20171;-78
2023/12/17 11:45:43;;;;;;;24.15;12.80;;;4.80;99.90;;;;;;5026009;28;20088;-77
2023/12/17 11:48:12;;;;;;;28.48;13.27;;;4.80;99.90;;;;;;5042807;28;20036;-77
2023/12/17 11:50:58;;;;;;;22.30;12.18;;;4.90;99.90;;;;;;5026847;28;20391;-79
2023/12/17 11:53:30;;;;;;;27.45;13.75;;;4.90;99.90;;;;;;5022397;28;20048;-77
2023/12/17 11:56:00;;;;;;;20.92;12.68;;;4.90;99.90;;;;;;5045106;28;20067;-78
2023/12/17 11:58:27;;;;;;;54.88;23.05;;;4.90;99.90;;;;;;5027181;28;20526;-79
2023/12/17 12:01:10;;;;;;;80.65;28.58;;;4.90;99.90;;;;;;5020642;28;20038;-81
2023/12/17 12:03:37;;;;;;;61.70;23.17;;;4.90;99.90;;;;;;5026517;28;20033;-78
2023/12/17 12:06:09;;;;;;;90.78;32.25;;;4.90;99.90;;;;;;5023525;28;20043;-78
2023/12/17 12:08:46;;;;;;;67.55;27.48;;;4.90;99.90;;;;;;5030820;28;20079;-78
2023/12/17 12:11:13;;;;;;;51.30;23.35;;;4.90;99.90;;;;;;5014714;28;20033;-78
2023/12/17 12:13:42;;;;;;;77.55;32.17;;;4.90;99.90;;;;;;5028059;28;20083;-79
2023/12/17 12:16:09;;;;;;;68.82;29.63;;;4.80;99.90;;;;;;5020640;28;20395;-78
2023/12/17 12:18:35;;;;;;;72.60;32.88;;;4.80;99.90;;;;;;5042975;28;20120;-79
2023/12/17 12:21:00;;;;;;;53.03;23.20;;;4.90;99.90;;;;;;5029749;28;20136;-78
2023/12/17 12:23:26;;;;;;;73.00;29.60;;;4.90;99.90;;;;;;5033056;28;20526;-78
2023/12/17 12:25:59;;;;;;;58.20;24.70;;;4.80;99.90;;;;;;5026829;28;20475;-78
2023/12/17 12:28:25;;;;;;;;;;;4.80;99.90;;;;;;5028447;28;20017;-78
2023/12/17 12:30:51;;;;;;;43.00;18.35;;;4.90;99.90;;;;;;5027790;28;19909;-79